Time;durP1;ratioP1;P1;durP2;ratioP2;P2;SDS_P1;SDS_P2;PMS_P1;PMS_P2;Temp;Humidity;BMP_temperature;BMP_pressure;BME280_temperature;BME280_humidity;BME280_pressure;Samples;Min_cycle;Max_cycle;Signal;HPM_P1;HPM_P2
2022/12/25 00:00:38;;;;;;;6.28;4.50;;;;;;;5.22;100.00;92919.44;5053280;28;20224;-78
2022/12/25 00:03:04;;;;;;;6.00;4.82;;;;;;;5.08;100.00;92923.41;5053842;28;20094;-77
2022/12/25 00:05:30;;;;;;;6.80;5.32;;;;;;;5.02;100.00;92924.34;5054217;28;20033;-77
2022/12/25 00:07:56;;;;;;;8.77;5.40;;;;;;;4.98;100.00;92934.44;5041392;28;20047;-77
2022/12/25 00:10:21;;;;;;;8.00;5.78;;;;;;;4.93;100.00;92925.81;5061072;28;20024;-77
2022/12/25 00:12:49;;;;;;;7.03;5.55;;;;;;;4.93;100.00;92928.41;5060439;28;20025;-77
2022/12/25 00:15:14;;;;;;;7.63;6.20;;;;;;;4.90;100.00;92919.28;5056953;28;20032;-77
2022/12/25 00:17:40;;;;;;;7.75;5.80;;;;;;;4.91;100.00;92917.47;5051903;28;20037;-77
2022/12/25 00:20:07;;;;;;;8.10;6.28;;;;;;;4.90;100.00;92921.09;5033754;28;20029;-77
2022/12/25 00:22:33;;;;;;;6.95;5.47;;;;;;;4.89;100.00;92927.34;5033890;28;20040;-77
2022/12/25 00:24:58;;;;;;;6.40;5.03;;;;;;;4.86;100.00;92907.03;5051333;28;20037;-77
2022/12/25 00:27:24;;;;;;;7.03;5.90;;;;;;;4.90;100.00;92916.69;5051460;28;20422;-77
2022/12/25 00:29:49;;;;;;;7.95;6.30;;;;;;;4.86;100.00;92917.41;5034076;28;20045;-77
2022/12/25 00:32:15;;;;;;;8.88;6.85;;;;;;;4.79;100.00;92908.00;5051927;28;20144;-77
2022/12/25 00:34:40;;;;;;;8.15;6.57;;;;;;;4.79;100.00;92912.41;5033687;28;20044;-77
2022/12/25 00:37:06;;;;;;;7.97;6.03;;;;;;;4.77;100.00;92915.25;5051460;28;20025;-77
2022/12/25 00:39:33;;;;;;;6.68;5.50;;;;;;;4.76;100.00;92915.47;5054246;28;20041;-77
2022/12/25 00:44:43;;;;;;;7.78;5.95;;;;;;;4.73;100.00;92914.16;5056508;28;20048;-78
2022/12/25 00:47:08;;;;;;;7.22;5.72;;;;;;;4.75;100.00;92919.09;5057120;28;20029;-78
2022/12/25 00:49:34;;;;;;;7.28;5.68;;;;;;;4.73;100.00;92926.34;5037850;28;20041;-78
2022/12/25 00:52:00;;;;;;;7.00;5.50;;;;;;;4.71;100.00;92923.97;5056423;28;20060;-78
2022/12/25 00:54:25;;;;;;;6.95;5.88;;;;;;;4.75;100.00;92924.28;5039261;28;20111;-78
2022/12/25 00:56:51;;;;;;;7.85;6.25;;;;;;;4.78;100.00;92929.78;5056948;28;20041;-78
2022/12/25 00:59:17;;;;;;;8.05;5.90;;;;;;;4.75;100.00;92929.47;5038113;28;20040;-78
2022/12/25 01:01:42;;;;;;;6.57;5.18;;;;;;;4.74;100.00;92930.50;5055788;28;20044;-78
2022/12/25 01:04:10;;;;;;;6.50;5.00;;;;;;;4.74;100.00;92927.91;5055826;28;20037;-78
2022/12/25 01:06:36;;;;;;;6.93;5.40;;;;;;;4.73;100.00;92932.31;5055864;28;20451;-78
2022/12/25 01:11:46;;;;;;;7.10;5.13;;;;;;;4.73;100.00;92939.31;5056447;28;20457;-78
2022/12/25 01:14:11;;;;;;;6.72;4.80;;;;;;;4.72;100.00;92937.72;5059409;28;20045;-78
2022/12/25 01:16:37;;;;;;;8.90;5.30;;;;;;;4.69;100.00;92933.81;5042289;28;20091;-78
2022/12/25 01:19:03;;;;;;;6.75;4.82;;;;;;;4.71;100.00;92942.13;5060443;28;20029;-78
2022/12/25 01:21:29;;;;;;;6.50;5.15;;;;;;;4.72;100.00;92935.13;5060732;28;20040;-78
2022/12/25 01:23:55;;;;;;;6.10;5.05;;;;;;;4.71;100.00;92936.94;5042848;28;20430;-78
2022/12/25 01:26:23;;;;;;;6.68;5.03;;;;;;;4.71;100.00;92942.13;5060165;28;20041;-78
2022/12/25 01:28:49;;;;;;;6.70;5.20;;;;;;;4.67;100.00;92943.63;5042327;28;20056;-79
2022/12/25 01:31:17;;;;;;;6.25;5.15;;;;;;;4.65;100.00;92942.31;5042813;28;20040;-78
2022/12/25 01:33:43;;;;;;;6.35;4.95;;;;;;;4.63;100.00;92958.09;5060660;28;20069;-78
2022/12/25 01:36:23;;;;;;;9.07;4.90;;;;;;;4.62;100.00;92945.38;5059938;28;20112;-78
2022/12/25 01:38:50;;;;;;;8.88;5.00;;;;;;;4.66;100.00;92951.63;5058522;28;20527;-77
2022/12/25 01:41:18;;;;;;;7.05;5.50;;;;;;;4.63;100.00;92954.72;5037797;28;20037;-77
2022/12/25 01:44:05;;;;;;;6.30;4.82;;;;;;;4.61;100.00;92954.16;5055467;28;20036;-77
2022/12/25 01:46:31;;;;;;;6.53;5.22;;;;;;;4.58;100.00;92950.25;5037193;28;20505;-77
2022/12/25 01:49:02;;;;;;;6.25;4.78;;;;;;;4.58;100.00;92950.25;5054888;28;20029;-77
2022/12/25 01:51:30;;;;;;;6.32;5.00;;;;;;;4.55;100.00;92950.72;5054822;28;20048;-76
2022/12/25 01:53:58;;;;;;;7.15;5.32;;;;;;;4.56;100.00;92953.06;5054841;28;20043;-77
2022/12/25 01:56:26;;;;;;;5.85;4.45;;;;;;;4.55;100.00;92959.28;5054790;28;20040;-77
2022/12/25 01:58:53;;;;;;;6.32;4.63;;;;;;;4.55;100.00;92955.91;5054832;28;20119;-76
2022/12/25 02:01:19;;;;;;;7.18;4.90;;;;;;;4.57;100.00;92959.84;5037491;28;20089;-76
2022/12/25 02:03:44;;;;;;;5.88;4.40;;;;;;;4.51;100.00;92954.81;5055504;28;20029;-77
2022/12/25 02:06:10;;;;;;;5.45;4.30;;;;;;;4.50;100.00;92956.63;5041780;28;20044;-78
2022/12/25 02:08:36;;;;;;;5.70;4.22;;;;;;;4.46;100.00;92967.69;5059652;28;20029;-77
2022/12/25 02:11:02;;;;;;;5.63;4.30;;;;;;;4.49;100.00;92959.44;5059840;28;20033;-77
2022/12/25 02:13:29;;;;;;;5.63;4.30;;;;;;;4.49;100.00;92964.63;5041571;28;20455;-77
2022/12/25 02:16:19;;;;;;;5.38;4.15;;;;;;;4.48;100.00;92963.84;5059140;28;20040;-77
2022/12/25 02:18:56;;;;;;;6.38;4.07;;;;;;;4.48;100.00;92969.03;5059291;28;20033;-77
2022/12/25 02:21:42;;;;;;;5.20;4.07;;;;;;;4.47;100.00;92956.31;5058969;28;20036;-77
2022/12/25 02:24:25;;;;;;;5.05;3.88;;;;;;;4.48;100.00;92960.44;5057733;28;20096;-78
2022/12/25 02:27:14;;;;;;;5.90;4.50;;;;;;;4.47;100.00;92956.31;5039904;28;20032;-77
2022/12/25 02:29:58;;;;;;;5.68;4.43;;;;;;;4.48;100.00;92957.84;5057480;28;20029;-77
2022/12/25 02:32:49;;;;;;;5.63;4.47;;;;;;;4.45;100.00;92953.16;5059251;28;20037;-77
2022/12/25 02:35:33;;;;;;;5.57;3.83;;;;;;;4.48;100.00;92950.91;5058978;28;20032;-77
2022/12/25 02:38:05;;;;;;;5.55;4.45;;;;;;;4.50;100.00;92955.81;5058821;28;20044;-77
2022/12/25 02:40:39;;;;;;;6.45;4.93;;;;;;;4.49;100.00;92951.66;5057617;28;20446;-77
2022/12/25 03:11:29;;;;;;;5.30;3.28;;;;;;;4.46;100.00;92952.13;5058215;28;20536;-78
2022/12/25 03:11:57;;;;;;;5.32;3.85;;;;;;;4.46;100.00;92952.13;5057944;28;20120;-77
2022/12/25 03:17:08;;;;;;;5.28;3.78;;;;;;;4.44;100.00;92960.16;5058025;28;20041;-78
2022/12/25 03:28:11;;;;;;;4.22;3.30;;;;;;;4.37;100.00;92962.91;5037167;28;20171;-78
2022/12/25 03:37:21;;;;;;;4.68;3.30;;;;;;;4.36;100.00;92957.94;5057427;28;20064;-78
2022/12/25 04:38:19;;;;;;;4.35;2.63;;;;;;;4.54;100.00;92967.28;5057435;28;20115;-78
2022/12/25 04:40:45;;;;;;;4.03;2.83;;;;;;;4.44;100.00;92970.53;5058527;28;20479;-78
2022/12/25 04:43:13;;;;;;;4.00;2.78;;;;;;;4.38;100.00;92966.28;5040596;28;20546;-78
2022/12/25 04:45:39;;;;;;;3.80;3.00;;;;;;;4.35;100.00;92967.53;5039958;28;20044;-78
2022/12/25 04:48:04;;;;;;;4.07;2.90;;;;;;;4.34;100.00;92965.94;5041168;28;20088;-78
2022/12/25 04:50:30;;;;;;;4.28;2.97;;;;;;;4.33;100.00;92964.41;5060086;28;20064;-78
2022/12/25 04:52:55;;;;;;;4.50;3.25;;;;;;;4.31;100.00;92960.47;5042874;28;20051;-78
2022/12/25 04:55:21;;;;;;;4.82;3.20;;;;;;;4.30;100.00;92964.88;5060856;28;20059;-78
2022/12/25 04:57:46;;;;;;;4.10;2.75;;;;;;;4.33;100.00;92966.22;5059997;28;20116;-77
2022/12/25 05:00:12;;;;;;;4.00;2.80;;;;;;;4.30;100.00;92964.06;5060839;28;20033;-78
2022/12/25 05:02:38;;;;;;;5.88;3.20;;;;;;;4.29;100.00;92968.47;5061021;28;20037;-78
2022/12/25 05:05:04;;;;;;;4.20;2.80;;;;;;;4.26;100.00;92963.78;5042361;28;20048;-78
2022/12/25 05:07:29;;;;;;;4.60;3.15;;;;;;;4.25;100.00;92959.59;5060296;28;20041;-78
2022/12/25 05:09:55;;;;;;;4.25;3.03;;;;;;;4.29;100.00;92963.28;5034417;28;20033;-77
2022/12/25 05:12:20;;;;;;;4.30;3.08;;;;;;;4.28;100.00;92972.09;5054061;28;20047;-77
2022/12/25 05:14:46;;;;;;;4.30;3.10;;;;;;;4.26;100.00;92968.94;5072181;28;20060;-77
2022/12/25 05:17:12;;;;;;;4.63;3.30;;;;;;;4.26;100.00;92965.59;5065061;28;20087;-78
2022/12/25 05:19:38;;;;;;;4.10;3.10;;;;;;;4.21;100.00;92971.47;5059000;28;20032;-78
2022/12/25 05:22:04;;;;;;;5.20;3.22;;;;;;;4.21;100.00;92976.66;5058591;28;20479;-78
2022/12/25 05:24:29;;;;;;;4.40;3.15;;;;;;;4.20;100.00;92969.09;5058830;28;20040;-78
2022/12/25 05:26:55;;;;;;;5.35;3.30;;;;;;;4.18;100.00;92969.34;5056751;28;20036;-79
2022/12/25 05:29:21;;;;;;;4.65;3.58;;;;;;;4.18;100.00;92971.91;5077739;28;20071;-79
2022/12/25 05:31:46;;;;;;;4.30;3.03;;;;;;;4.17;100.00;92978.91;5066080;28;20036;-79
2022/12/25 05:34:12;;;;;;;4.85;3.60;;;;;;;4.12;100.00;92971.06;5061911;28;20494;-79
2022/12/25 05:36:37;;;;;;;5.40;3.28;;;;;;;4.17;100.00;92971.13;5064070;28;20044;-79
2022/12/25 05:39:03;;;;;;;4.57;3.10;;;;;;;4.16;100.00;92972.16;5043700;28;20028;-78
2022/12/25 05:41:28;;;;;;;4.55;2.72;;;;;;;4.16;100.00;92976.53;5082844;28;20094;-79
2022/12/25 05:43:54;;;;;;;4.90;3.28;;;;;;;4.11;100.00;92971.28;5082741;28;20516;-79
2022/12/25 05:46:20;;;;;;;4.35;2.90;;;;;;;4.10;100.00;92974.91;5065190;28;20115;-79
2022/12/25 05:48:45;;;;;;;4.65;3.20;;;;;;;4.09;100.00;92983.69;5082969;28;20067;-78
2022/12/25 05:51:13;;;;;;;4.45;3.15;;;;;;;4.10;100.00;92980.88;5083290;28;20502;-78
2022/12/25 05:53:41;;;;;;;4.20;3.20;;;;;;;4.10;100.00;92985.28;5083105;28;20127;-78
2022/12/25 05:56:08;;;;;;;3.92;2.90;;;;;;;4.08;100.00;92985.50;5083649;28;20429;-78
2022/12/25 05:58:37;;;;;;;5.88;3.50;;;;;;;4.08;100.00;92989.91;5064188;28;20056;-79
2022/12/25 06:01:03;;;;;;;5.13;3.40;;;;;;;4.08;100.00;92990.69;5083313;28;20035;-78
2022/12/25 06:03:29;;;;;;;4.72;3.33;;;;;;;4.07;100.00;92991.69;5064875;28;20041;-78
2022/12/25 06:05:54;;;;;;;5.25;3.42;;;;;;;4.06;100.00;92997.13;5064843;28;20079;-78
2022/12/25 06:08:20;;;;;;;5.03;3.28;;;;;;;4.06;100.00;92991.94;5048705;28;20067;-78
2022/12/25 06:10:46;;;;;;;4.78;3.67;;;;;;;4.04;100.00;92988.78;5083087;28;20037;-78
2022/12/25 06:13:12;;;;;;;4.97;3.70;;;;;;;4.06;100.00;92987.53;5083345;28;20052;-79
2022/12/25 06:15:39;;;;;;;5.05;3.55;;;;;;;4.02;100.00;92993.41;5081879;28;20513;-77
2022/12/25 06:18:05;;;;;;;5.75;3.83;;;;;;;4.03;100.00;92994.97;5074927;28;20462;-77
2022/12/25 06:20:31;;;;;;;5.10;3.83;;;;;;;3.99;100.00;92999.06;5075182;28;20063;-77
2022/12/25 06:22:57;;;;;;;5.10;3.92;;;;;;;4.03;100.00;93002.75;5079426;28;20391;-77
2022/12/25 06:25:23;;;;;;;4.38;3.33;;;;;;;4.01;100.00;93004.78;5079573;28;20029;-78
2022/12/25 06:27:48;;;;;;;5.10;3.60;;;;;;;3.96;100.00;93021.84;5076791;28;20065;-77
2022/12/25 06:30:14;;;;;;;4.75;3.60;;;;;;;3.93;100.00;93013.72;5061323;28;20040;-77
2022/12/25 06:32:40;;;;;;;5.85;4.25;;;;;;;3.94;100.00;93013.50;5079214;28;20032;-77
2022/12/25 06:35:06;;;;;;;5.15;3.30;;;;;;;3.96;100.00;93021.84;5061328;28;20135;-78
2022/12/25 06:37:31;;;;;;;4.30;3.35;;;;;;;3.94;100.00;93017.88;5078730;28;20032;-77
2022/12/25 06:39:57;;;;;;;5.50;3.85;;;;;;;3.94;100.00;93023.06;5061450;28;20024;-77
2022/12/25 06:42:23;;;;;;;5.13;4.00;;;;;;;3.92;100.00;93018.13;5078310;28;20036;-77
2022/12/25 06:44:49;;;;;;;5.72;3.80;;;;;;;3.92;100.00;93025.91;5078418;28;20051;-77
2022/12/25 06:47:15;;;;;;;4.90;3.58;;;;;;;3.83;100.00;93022.13;5078407;28;20028;-78
2022/12/25 06:49:42;;;;;;;5.38;3.97;;;;;;;3.87;100.00;93028.41;5089457;28;20042;-77
2022/12/25 06:52:08;;;;;;;6.32;4.47;;;;;;;3.86;100.00;93021.63;5073323;28;20044;-77
2022/12/25 06:54:33;;;;;;;5.63;4.32;;;;;;;3.85;100.00;93021.88;5089246;28;20029;-77
2022/12/25 06:56:59;;;;;;;6.07;4.53;;;;;;;3.85;100.00;93027.84;5052001;28;20072;-76
2022/12/25 06:59:24;;;;;;;6.18;4.00;;;;;;;3.85;100.00;93030.44;5069607;28;20036;-77
2022/12/25 07:01:56;;;;;;;5.90;4.40;;;;;;;3.84;100.00;93031.44;5071160;28;20066;-77
2022/12/25 07:04:30;;;;;;;5.68;4.43;;;;;;;3.81;100.00;93037.09;5056081;28;20020;-77
2022/12/25 07:06:57;;;;;;;5.47;4.32;;;;;;;3.83;100.00;93037.66;5067995;28;20488;-78
2022/12/25 07:09:23;;;;;;;6.55;4.22;;;;;;;3.82;100.00;93041.25;5069679;28;20032;-77
2022/12/25 07:11:49;;;;;;;6.43;4.53;;;;;;;3.79;100.00;93039.13;5074003;28;20071;-78
2022/12/25 07:14:20;;;;;;;6.07;4.70;;;;;;;3.79;100.00;93046.91;5071526;28;20041;-79
2022/12/25 07:16:45;;;;;;;6.65;4.88;;;;;;;3.79;100.00;93046.13;5058387;28;20040;-79
2022/12/25 07:19:11;;;;;;;7.30;5.32;;;;;;;3.72;100.00;93039.25;5075960;28;20099;-79
2022/12/25 07:21:37;;;;;;;9.07;5.50;;;;;;;3.77;100.00;93054.09;5056432;28;20287;-77
2022/12/25 07:24:02;;;;;;;7.47;5.30;;;;;;;3.77;100.00;93056.69;5066609;28;20059;-77
2022/12/25 07:26:28;;;;;;;7.32;5.07;;;;;;;3.79;100.00;93059.84;5063846;28;20235;-77
2022/12/25 07:28:57;;;;;;;7.22;5.30;;;;;;;3.77;100.00;93054.09;5074152;28;20067;-78
2022/12/25 07:31:22;;;;;;;7.80;5.50;;;;;;;3.79;100.00;93051.28;5058458;28;20122;-80
2022/12/25 07:33:51;;;;;;;7.57;5.35;;;;;;;3.78;100.00;93063.44;5057854;28;20458;-77
2022/12/25 07:36:17;;;;;;;8.05;5.88;;;;;;;3.77;100.00;93066.28;5074838;28;20036;-80
2022/12/25 07:38:43;;;;;;;7.05;4.68;;;;;;;3.71;100.00;93060.97;5059972;28;20547;-82
2022/12/25 07:41:11;;;;;;;7.53;5.03;;;;;;;3.71;100.00;93062.78;5039704;28;20036;-76
2022/12/25 07:43:37;;;;;;;9.20;5.07;;;;;;;3.70;100.00;93058.63;5071297;28;20038;-75
2022/12/25 07:46:03;;;;;;;8.07;5.57;;;;;;;3.71;100.00;93060.97;5053590;28;20102;-76
2022/12/25 07:48:29;;;;;;;10.65;5.53;;;;;;;3.68;100.00;93065.84;5053166;28;20098;-76
2022/12/25 07:51:01;;;;;;;7.90;5.55;;;;;;;3.69;100.00;93067.41;5053817;28;20032;-76
2022/12/25 07:53:27;;;;;;;51.45;6.40;;;;;;;3.65;100.00;93071.47;5071056;28;20068;-76
2022/12/25 07:56:07;;;;;;;8.25;5.80;;;;;;;3.60;100.00;93058.41;5053657;28;20390;-75
2022/12/25 07:58:33;;;;;;;11.55;5.80;;;;;;;3.62;100.00;93074.50;5071107;28;20054;-76
2022/12/25 08:01:09;;;;;;;21.27;5.90;;;;;;;3.61;100.00;93070.38;5053179;28;20490;-75
2022/12/25 08:03:35;;;;;;;6.88;5.00;;;;;;;3.61;100.00;93078.13;5052896;28;20028;-75
2022/12/25 08:06:07;;;;;;;29.52;5.55;;;;;;;3.59;100.00;93073.16;5070909;28;20441;-76
2022/12/25 08:08:34;;;;;;;18.52;5.47;;;;;;;3.62;100.00;93074.50;5070911;28;20458;-75
2022/12/25 08:11:00;;;;;;;89.88;6.55;;;;;;;3.59;100.00;93082.75;5070861;28;20123;-76
2022/12/25 08:13:29;;;;;;;102.55;7.45;;;;;;;3.62;100.00;93088.25;5071022;28;20092;-75
2022/12/25 08:15:59;;;;;;;14.38;5.45;;;;;;;3.64;100.00;93093.97;5070907;28;20043;-75
2022/12/25 08:18:25;;;;;;;79.13;6.28;;;;;;;3.68;100.00;93096.91;5052971;28;20064;-76
2022/12/25 08:20:50;;;;;;;37.35;5.60;;;;;;;3.65;100.00;93092.97;5070828;28;20059;-76
2022/12/25 08:23:17;;;;;;;19.45;5.28;;;;;;;3.67;100.00;93098.72;5070367;28;20042;-76
2022/12/25 08:25:42;;;;;;;15.65;5.15;;;;;;;3.62;100.00;93095.22;5052701;28;20448;-76
2022/12/25 08:28:08;;;;;;;9.57;4.70;;;;;;;3.72;100.00;93103.22;5052432;28;20044;-76
2022/12/25 08:30:33;;;;;;;6.30;4.30;;;;;;;3.72;100.00;93101.41;5052828;28;20040;-75
2022/12/25 08:32:59;;;;;;;16.90;4.45;;;;;;;3.67;100.00;93116.03;5070696;28;20410;-75
2022/12/25 08:35:25;;;;;;;12.18;4.40;;;;;;;3.62;100.00;93110.75;5070625;28;20394;-75
2022/12/25 08:37:50;;;;;;;24.48;5.03;;;;;;;3.60;100.00;93112.78;5070974;28;20047;-75
2022/12/25 08:40:16;;;;;;;15.88;4.38;;;;;;;3.52;100.00;93114.72;5070788;28;20036;-75
2022/12/25 08:42:42;;;;;;;5.60;4.22;;;;;;;3.49;100.00;93104.81;5052764;28;20032;-75
2022/12/25 08:45:08;;;;;;;6.25;4.53;;;;;;;3.51;100.00;93114.94;5070396;28;20048;-75
2022/12/25 08:47:34;;;;;;;6.70;4.75;;;;;;;3.54;100.00;93117.88;5069886;28;20412;-75
2022/12/25 08:50:00;;;;;;;7.57;4.63;;;;;;;3.51;100.00;93122.69;5052835;28;20128;-75
2022/12/25 08:52:27;;;;;;;6.53;4.93;;;;;;;3.52;100.00;93117.31;5070497;28;20051;-76
2022/12/25 08:54:52;;;;;;;10.05;5.10;;;;;;;3.57;100.00;93126.19;5053709;28;20497;-76
2022/12/25 08:57:18;;;;;;;24.08;5.50;;;;;;;3.62;100.00;93127.06;5049028;28;20021;-78
2022/12/25 08:59:44;;;;;;;12.13;5.78;;;;;;;3.65;100.00;93125.84;5052299;28;20037;-76
2022/12/25 09:02:11;;;;;;;36.47;6.40;;;;;;;3.68;100.00;93117.63;5051871;28;20044;-77
2022/12/25 09:04:36;;;;;;;11.80;6.13;;;;;;;3.79;100.00;93131.56;5034729;28;20028;-76
2022/12/25 09:07:03;;;;;;;9.68;6.10;;;;;;;3.84;100.00;93137.63;5054450;28;20154;-77
2022/12/25 09:09:29;;;;;;;7.25;5.30;;;;;;;3.99;100.00;93133.78;5053675;28;20414;-79
2022/12/25 09:11:54;;;;;;;5.78;4.10;;;;;;;4.10;100.00;93138.16;5036696;28;20037;-76
2022/12/25 09:14:20;;;;;;;5.57;4.25;;;;;;;4.25;100.00;93138.41;5071846;28;20040;-77
2022/12/25 09:16:48;;;;;;;4.75;3.15;;;;;;;4.40;100.00;93137.13;5071264;28;20441;-76
2022/12/25 09:19:13;;;;;;;4.32;3.10;;;;;;;4.60;100.00;93153.06;5071352;28;20164;-75
2022/12/25 09:21:39;;;;;;;4.32;3.00;;;;;;;4.76;100.00;93156.69;5071014;28;20491;-76
2022/12/25 09:24:05;;;;;;;5.78;4.38;;;;;;;4.91;100.00;93156.16;5041290;28;20036;-75
2022/12/25 09:26:31;;;;;;;6.60;4.70;;;;;;;4.90;100.00;93163.16;5051290;28;20040;-76
2022/12/25 09:28:56;;;;;;;6.03;4.55;;;;;;;4.93;100.00;93169.69;5056618;28;20145;-77
2022/12/25 09:31:23;;;;;;;10.00;7.03;;;;;;;4.98;100.00;93156.81;5071730;28;20051;-77
2022/12/25 09:33:49;;;;;;;6.35;4.85;;;;;;;5.05;100.00;93167.03;5052685;28;20505;-76
2022/12/25 09:36:15;;;;;;;6.88;5.07;;;;;;;5.26;100.00;93171.53;5046801;28;20045;-77
2022/12/25 09:38:41;;;;;;;7.72;5.40;;;;;;;5.13;100.00;93159.63;5036707;28;20058;-77
2022/12/25 09:42:00;;;;;;;7.85;5.53;;;;;;;5.08;100.00;93156.97;5053379;28;20509;-77
2022/12/25 09:44:33;;;;;;;8.68;5.60;;;;;;;4.95;100.00;93159.84;5027971;28;20083;-76
2022/12/25 09:47:06;;;;;;;11.55;8.23;;;;;;;4.99;100.00;93164.34;5074243;28;20494;-76
2022/12/25 09:49:38;;;;;;;7.45;4.95;;;;;;;4.91;100.00;93164.75;5073704;28;20040;-76
2022/12/25 09:52:33;;;;;;;6.90;4.80;;;;;;;4.80;100.00;93166.38;5074024;28;20631;-77
2022/12/25 09:55:18;;;;;;;8.88;6.18;;;;;;;4.82;100.00;93162.75;5053981;28;20044;-77
2022/12/25 09:57:48;;;;;;;9.45;6.68;;;;;;;4.96;100.00;93166.63;5071358;28;20021;-77
2022/12/25 10:00:22;;;;;;;7.25;6.03;;;;;;;4.94;100.00;93166.09;5054081;28;20040;-76
2022/12/25 10:03:03;;;;;;;8.18;6.05;;;;;;;4.98;100.00;93164.59;5073807;28;20093;-76
2022/12/25 10:05:35;;;;;;;8.65;6.25;;;;;;;5.03;100.00;93159.47;5073517;28;20131;-77
2022/12/25 10:08:36;;;;;;;8.80;6.50;;;;;;;5.13;100.00;93166.63;5051760;28;20098;-75
2022/12/25 10:11:35;;;;;;;7.60;5.63;;;;;;;5.22;100.00;93168.63;5034800;28;20056;-76
2022/12/25 10:14:48;;;;;;;9.00;5.80;;;;;;;5.29;100.00;93167.66;5053864;28;20448;-78
2022/12/25 10:17:14;;;;;;;;;;;;;;;5.40;100.00;93159.00;4981085;28;20582;-76
2022/12/25 10:19:59;;;;;;;17.85;11.85;;;;;;;5.46;100.00;93173.63;5054716;28;19951;-77
2022/12/25 10:22:37;;;;;;;10.82;7.55;;;;;;;5.43;100.00;93176.72;5073901;28;20059;-77
2022/12/25 10:25:05;;;;;;;10.77;6.63;;;;;;;5.46;100.00;93178.84;5072748;28;20033;-77
2022/12/25 10:27:31;;;;;;;8.10;5.70;;;;;;;5.48;100.00;93173.41;5055507;28;20087;-76
2022/12/25 10:29:57;;;;;;;6.90;4.90;;;;;;;5.49;100.00;93173.16;5073016;28;20064;-77
2022/12/25 10:32:23;;;;;;;8.98;7.22;;;;;;;5.53;100.00;93173.47;5076970;28;20390;-78
2022/12/25 10:34:49;;;;;;;6.70;5.07;;;;;;;5.58;100.00;93171.75;5093096;28;20043;-77
2022/12/25 10:37:16;;;;;;;6.40;4.50;;;;;;;5.58;100.00;93171.75;5075130;28;20032;-78
2022/12/25 10:39:43;;;;;;;9.95;7.22;;;;;;;5.54;100.00;93170.66;5041627;28;20127;-79
2022/12/25 10:42:25;;;;;;;8.23;6.28;;;;;;;5.47;100.00;93170.03;5078567;28;20121;-77
2022/12/25 10:45:05;;;;;;;7.97;5.80;;;;;;;5.49;100.00;93162.78;5053741;28;20628;-81
2022/12/25 10:47:33;;;;;;;14.20;9.80;;;;;;;5.42;100.00;93164.75;5061497;28;20070;-81
2022/12/25 10:50:06;;;;;;;7.32;5.40;;;;;;;5.33;100.00;93174.75;5075256;28;20024;-78
2022/12/25 10:52:32;;;;;;;7.97;6.13;;;;;;;5.31;100.00;93176.00;5039410;28;20104;-79
2022/12/25 10:55:09;;;;;;;10.52;6.93;;;;;;;5.36;100.00;93170.91;5056771;28;20113;-81
2022/12/25 10:57:44;;;;;;;12.98;7.60;;;;;;;5.48;100.00;93171.59;5057858;28;20036;-80
2022/12/25 11:00:29;;;;;;;10.18;6.78;;;;;;;5.62;100.00;93167.63;5071159;28;20044;-80
2022/12/25 11:02:55;;;;;;;8.35;6.45;;;;;;;5.73;100.00;93167.78;5055294;28;20036;-77
2022/12/25 11:05:27;;;;;;;8.55;6.22;;;;;;;5.85;100.00;93160.66;5056326;28;20129;-76
2022/12/25 11:07:54;;;;;;;;;;;;;;;6.00;100.00;93158.28;5055170;28;20442;-77
2022/12/25 11:10:33;;;;;;;9.90;7.43;;;;;;;6.09;100.00;93160.50;5054465;28;19916;-79
2022/12/25 11:13:00;;;;;;;7.75;5.40;;;;;;;6.18;100.00;93154.63;5053984;28;20047;-78
2022/12/25 11:15:34;;;;;;;7.50;5.43;;;;;;;6.29;100.00;93160.72;5068953;28;20037;-78
2022/12/25 11:18:00;;;;;;;9.25;5.70;;;;;;;6.24;100.00;93156.25;5075229;28;20036;-76
2022/12/25 11:20:26;;;;;;;16.00;9.20;;;;;;;6.21;100.00;93145.53;5068247;28;20487;-77
2022/12/25 11:22:52;;;;;;;27.58;14.30;;;;;;;6.27;100.00;93139.38;5067464;28;20072;-77
2022/12/25 11:25:26;;;;;;;27.27;16.05;;;;;;;6.38;100.00;93146.25;5072417;28;20464;-76
2022/12/25 11:28:12;;;;;;;14.57;8.55;;;;;;;6.57;100.00;93146.72;5065081;28;20045;-78
2022/12/25 11:30:39;;;;;;;19.23;10.02;;;;;;;6.79;100.00;93141.47;5059757;28;20041;-78
2022/12/25 11:33:11;;;;;;;9.00;5.55;;;;;;;6.97;100.00;93139.56;5056281;28;20088;-78
2022/12/25 11:35:58;;;;;;;3.88;2.08;;;;;;;7.45;100.00;93137.81;5055455;28;20032;-79
2022/12/25 11:38:24;;;;;;;2.95;1.60;;;;;;;8.16;100.00;93136.66;5054827;28;20051;-78
2022/12/25 11:41:02;;;;;;;2.97;1.80;;;;;;;8.68;100.00;93135.81;5054451;28;20049;-78
2022/12/25 11:43:42;;;;;;;3.55;2.05;;;;;;;8.72;100.00;93135.03;5054422;28;20372;-77
2022/12/25 11:46:17;;;;;;;4.40;2.40;;;;;;;8.80;100.00;93118.06;5053455;28;20540;-77
2022/12/25 11:48:54;;;;;;;4.10;2.40;;;;;;;8.58;100.00;93120.09;5036991;28;20037;-77
2022/12/25 11:51:24;;;;;;;3.08;1.85;;;;;;;8.40;100.00;93114.34;5072511;28;20063;-76
2022/12/25 11:54:13;;;;;;;3.20;2.00;;;;;;;8.39;100.00;93110.13;5055876;28;20123;-77
2022/12/25 11:56:38;;;;;;;4.30;2.75;;;;;;;8.49;100.00;93110.19;5028082;28;20063;-77
2022/12/25 11:59:33;;;;;;;3.80;2.28;;;;;;;8.26;100.00;93108.78;5055935;28;20085;-77
2022/12/25 12:02:08;;;;;;;3.55;2.20;;;;;;;8.40;100.00;93103.91;5061160;28;20115;-78
2022/12/25 12:04:40;;;;;;;4.57;3.17;;;;;;;8.74;100.00;93104.22;5062289;28;20021;-76
2022/12/25 12:07:25;;;;;;;7.18;4.53;;;;;;;9.06;100.00;93099.81;5051254;28;20127;-76
2022/12/25 12:09:57;;;;;;;6.65;4.38;;;;;;;8.85;100.00;93099.81;5052212;28;20094;-77
2022/12/25 12:12:36;;;;;;;4.78;2.83;;;;;;;8.66;100.00;93101.34;5033521;28;20102;-77
2022/12/25 12:15:34;;;;;;;2.90;1.80;;;;;;;8.67;100.00;93092.47;5051387;28;20061;-77
2022/12/25 12:18:08;;;;;;;4.55;3.15;;;;;;;8.99;100.00;93083.63;5034386;28;20071;-78
2022/12/25 12:20:35;;;;;;;3.20;2.15;;;;;;;9.09;97.73;93084.41;5051762;28;20043;-77
2022/12/25 12:23:03;;;;;;;3.42;2.28;;;;;;;9.01;97.24;93081.53;5033822;28;20036;-76
2022/12/25 12:25:30;;;;;;;3.80;2.33;;;;;;;8.94;98.85;93077.38;5033175;28;20044;-76
2022/12/25 12:27:59;;;;;;;2.88;1.77;;;;;;;9.30;96.12;93071.31;5033182;28;20040;-77
2022/12/25 12:30:43;;;;;;;4.35;2.80;;;;;;;9.04;100.00;93073.19;5051604;28;20040;-77
2022/12/25 12:33:19;;;;;;;4.28;2.80;;;;;;;8.94;100.00;93077.38;5051721;28;20033;-77
2022/12/25 12:35:45;;;;;;;5.15;3.33;;;;;;;8.88;100.00;93067.94;5052789;28;20129;-77
2022/12/25 12:38:19;;;;;;;4.50;3.13;;;;;;;8.79;100.00;93069.50;5017207;28;20065;-76
2022/12/25 12:41:06;;;;;;;4.18;2.60;;;;;;;8.59;100.00;93080.72;5033290;28;20114;-77
2022/12/25 12:43:36;;;;;;;4.40;3.00;;;;;;;8.59;100.00;93079.94;5050853;28;20115;-77
2022/12/25 12:46:18;;;;;;;5.80;3.30;;;;;;;8.51;100.00;93078.59;5050946;28;20064;-78
2022/12/25 12:48:47;;;;;;;4.82;2.78;;;;;;;8.51;100.00;93070.78;5037010;28;20064;-76
2022/12/25 12:51:34;;;;;;;4.65;2.33;;;;;;;8.52;100.00;93072.34;5052542;28;20132;-79
2022/12/25 12:54:25;;;;;;;4.22;2.53;;;;;;;8.49;100.00;93076.28;5056645;28;20033;-78
2022/12/25 12:56:58;;;;;;;7.32;4.32;;;;;;;8.14;100.00;93079.53;5061296;28;20102;-81
2022/12/25 12:59:25;;;;;;;4.75;2.97;;;;;;;8.03;100.00;93072.72;5078345;28;20025;-76
2022/12/25 13:01:57;;;;;;;4.00;2.70;;;;;;;7.97;100.00;93071.94;5072578;28;20496;-78
2022/12/25 13:04:50;;;;;;;7.97;4.80;;;;;;;7.87;100.00;93069.25;5057297;28;20040;-77
2022/12/25 13:07:29;;;;;;;8.10;5.82;;;;;;;7.46;100.00;93085.47;5073889;28;20066;-76
2022/12/25 13:10:17;;;;;;;7.18;5.57;;;;;;;7.38;100.00;93080.72;5058622;28;20039;-77
2022/12/25 13:12:43;;;;;;;7.45;5.40;;;;;;;7.51;100.00;93079.50;5074857;28;20321;-76
2022/12/25 13:15:14;;;;;;;7.88;5.65;;;;;;;7.59;100.00;93076.44;5057607;28;20083;-78
2022/12/25 13:17:43;;;;;;;8.73;5.45;;;;;;;7.51;100.00;93082.91;5055832;28;20049;-76
2022/12/25 13:20:39;;;;;;;9.10;6.63;;;;;;;7.29;100.00;93090.84;5054826;28;20057;-76
2022/12/25 13:23:26;;;;;;;9.20;6.75;;;;;;;7.07;100.00;93092.78;5056719;28;20494;-75
2022/12/25 13:25:57;;;;;;;8.88;6.15;;;;;;;7.01;100.00;93093.78;5020679;28;20029;-76
2022/12/25 13:28:31;;;;;;;8.15;5.47;;;;;;;7.07;100.00;93093.56;5045982;28;20052;-76
2022/12/25 13:31:04;;;;;;;7.80;4.93;;;;;;;7.29;100.00;93100.47;5066014;28;20043;-76
2022/12/25 13:33:30;;;;;;;8.20;5.18;;;;;;;7.19;100.00;93090.78;5056015;28;20417;-76